Aérodrome :
LOGIN :

S'inscrire | Disclaimer

   EN    FR    IT 

 










Légende :    VFR   VFR Marginal   IFR   IFR Intensif   IFR Très Intensif
Visi : 
Plafond : 
>= 8 km
>= 3000ft
5 à 8 km
1000 à 3000 ft
1500m à 5 km
500 à 1000 ft
800 à 1500m
200 à 500 ft
< 800m
< 200 ft
Symboles :   Orages  Brouillard  Fortes neiges  Fortes précipitations  Vent > 20 kt
SIGMETs :   Divers  Orages  Givrage  Turbulence  Onde Orograph.  Cendres Volcan.







- Altitude de l'aérodrome : 25 ft
- Code IATA : QCY


EGXC - RAF Coningsby

DERNIER METAR :
  • 131250Z 21016KT 9999 SCT026 BKN035 06/04 Q0989 BLU TEMPO 4000 RA BKN008 GRN

METARs EXPIRÉS :
  • 131150Z 22016KT 9999 SCT030 BKN140 06/04 Q0991 BLU TEMPO 4000 RA BKN008 GRN
  • 131050Z 22012KT CAVOK 06/04 Q0993 BLU NOSIG

TAF TAF EGXC
Valide du 13 à 12h jusqu'au 14 à 06h UTC


131059Z 1312/1406 23015G25KT CAVOK
TEMPO 1312/1315 4000 RA BKN008
BECMG 1313/1315 26016G26KT
BECMG 1318/1320 24012KT
PROB30
TEMPO 1320/1323 4000 SHRASN BKN010
PROB30
TEMPO 1401/1406 26016G26KT 4000 SHRASN BKN010
Pas de NOTAMs connus pour ce terrain.



MET'MAP, la Météo Aéronautique d'un coup d'oeil ! - Copyright ORBIFLY Décembre 2007 - Disclaimer

ORBIFLY MET'MAP TEAM :

Programmation & Développement : Alexandra Zaïnal
Conception & Développement : Baudouin d'Aumeries
Co-Programmation & Développement : Marc-Olivier Méhu
Soutien technique & logistique : Manuel Goepfert

Contact : metmap@orbifly.com




SOURCES & CREDITS :

   NOAA